Time;durP1;ratioP1;P1;durP2;ratioP2;P2;SDS_P1;SDS_P2;PMS_P1;PMS_P2;Temp;Humidity;BMP_temperature;BMP_pressure;BME280_temperature;BME280_humidity;BME280_pressure;Samples;Min_cycle;Max_cycle;Signal;HPM_P1;HPM_P2
2021/12/02 00:00:54;;;;;;;5.94;5.47;;;;;;;2.15;67.67;99928.55;475217;110;931051;-79
2021/12/02 00:01:58;;;;;;;6.06;5.66;;;;;;;2.13;67.56;99925.19;475731;110;930522;-79
2021/12/02 00:03:04;;;;;;;6.14;5.64;;;;;;;2.10;67.56;99931.74;474752;110;922545;-78
2021/12/02 00:04:07;;;;;;;5.94;5.44;;;;;;;2.08;67.58;99933.80;474522;110;930525;-79
2021/12/02 00:05:10;;;;;;;5.44;5.03;;;;;;;2.05;67.60;99937.66;475553;110;922449;-81
2021/12/02 00:06:16;;;;;;;6.11;5.60;;;;;;;2.03;67.74;99934.33;474398;110;930477;-82
2021/12/02 00:07:19;;;;;;;5.42;5.04;;;;;;;2.05;67.61;99939.50;475675;110;922550;-81
2021/12/02 00:08:22;;;;;;;5.56;5.15;;;;;;;2.03;67.53;99942.39;474273;110;922679;-81
2021/12/02 00:09:26;;;;;;;5.41;5.01;;;;;;;2.02;67.53;99943.39;476407;110;922703;-80
2021/12/02 00:10:34;;;;;;;6.47;6.05;;;;;;;2.01;67.41;99941.72;474321;110;923122;-81
2021/12/02 00:11:38;;;;;;;5.54;5.07;;;;;;;2.00;67.35;99945.41;472994;110;922572;-81
2021/12/02 00:12:41;;;;;;;6.17;5.69;;;;;;;1.99;67.25;99956.33;473974;110;922564;-81
2021/12/02 00:14:59;;;;;;;6.81;6.31;;;;;;;1.96;67.29;99956.70;475552;110;922547;-80
2021/12/02 00:16:17;;;;;;;6.17;5.67;;;;;;;1.95;67.23;99957.70;473410;110;922685;-80
2021/12/02 00:17:14;;;;;;;6.17;5.63;;;;;;;1.94;67.21;99958.71;475617;110;922519;-80
2021/12/02 00:21:04;;;;;;;5.59;5.08;;;;;;;1.92;67.00;99966.12;474960;110;922536;-79
2021/12/02 00:22:09;;;;;;;5.22;4.82;;;;;;;1.91;66.91;99964.45;474272;110;922595;-78
2021/12/02 00:23:33;;;;;;;4.64;4.24;;;;;;;1.88;66.72;99962.09;474647;110;923014;-79
2021/12/02 00:24:39;;;;;;;4.98;4.54;;;;;;;1.86;66.53;99978.42;475338;110;922591;-79
2021/12/02 00:25:42;;;;;;;4.59;4.19;;;;;;;1.86;66.59;99982.95;474846;110;922876;-79
2021/12/02 00:26:48;;;;;;;4.86;4.23;;;;;;;1.83;66.59;99973.38;474487;110;922523;-79
2021/12/02 00:27:54;;;;;;;4.56;4.18;;;;;;;1.84;66.46;99993.03;474388;109;930593;-79
2021/12/02 00:28:59;;;;;;;4.52;4.12;;;;;;;1.85;66.37;99982.11;474230;110;922917;-78
2021/12/02 00:30:03;;;;;;;4.75;4.35;;;;;;;1.86;66.03;99982.95;473901;110;922492;-78
2021/12/02 00:31:13;;;;;;;4.43;4.12;;;;;;;1.86;65.76;99993.70;475485;110;922609;-78
2021/12/02 00:32:17;;;;;;;5.62;4.62;;;;;;;1.84;65.62;99993.03;473648;110;922730;-79
2021/12/02 00:33:23;;;;;;;4.28;3.98;;;;;;;1.81;65.57;99991.54;474114;110;923153;-78
2021/12/02 00:34:27;;;;;;;4.18;3.86;;;;;;;1.79;65.42;99993.55;474130;110;922909;-79
2021/12/02 00:35:31;;;;;;;4.46;4.01;;;;;;;1.78;65.42;99996.41;474513;109;923150;-78
2021/12/02 00:36:37;;;;;;;3.40;3.12;;;;;;;1.77;65.35;99998.25;475284;110;931092;-79
2021/12/02 00:37:41;;;;;;;3.01;2.80;;;;;;;1.78;65.25;100001.78;474780;110;922608;-79
2021/12/02 00:38:46;;;;;;;3.29;3.00;;;;;;;1.76;64.96;100001.97;474589;110;922477;-79
2021/12/02 00:39:52;;;;;;;3.53;3.23;;;;;;;1.75;64.83;100002.98;474231;110;922650;-78
2021/12/02 00:40:56;;;;;;;3.33;3.04;;;;;;;1.75;64.83;100008.35;474685;110;923306;-79
2021/12/02 00:41:59;;;;;;;2.86;2.66;;;;;;;1.75;64.67;100002.98;474775;110;922718;-79
2021/12/02 00:43:03;;;;;;;3.16;2.89;;;;;;;1.76;64.40;100009.20;475611;110;930264;-79
2021/12/02 00:44:06;;;;;;;3.27;2.97;;;;;;;1.74;64.44;100013.89;475429;110;922754;-78
2021/12/02 00:45:09;;;;;;;3.65;3.00;;;;;;;1.73;64.34;100021.11;474283;110;922912;-78
2021/12/02 00:46:18;;;;;;;3.56;2.66;;;;;;;1.72;64.23;100022.12;474087;110;930534;-78
2021/12/02 00:47:22;;;;;;;3.10;2.73;;;;;;;1.72;63.94;100026.65;474131;110;922907;-79
2021/12/02 00:48:25;;;;;;;2.27;2.17;;;;;;;1.71;63.97;100028.50;473993;110;922481;-79
2021/12/02 00:49:29;;;;;;;2.89;2.66;;;;;;;1.72;63.84;100029.34;473932;110;922434;-79
2021/12/02 00:50:33;;;;;;;2.57;2.38;;;;;;;1.73;63.90;100025.64;465756;112;922798;-79
2021/12/02 00:51:37;;;;;;;2.97;2.68;;;;;;;1.74;63.74;100030.02;466044;111;923779;-80
2021/12/02 00:52:41;;;;;;;2.94;2.62;;;;;;;1.73;63.72;100036.39;473004;110;923552;-80
2021/12/02 00:53:51;;;;;;;3.33;2.33;;;;;;;1.71;63.77;100033.87;471394;110;922640;-80
2021/12/02 00:54:55;;;;;;;2.36;2.14;;;;;;;1.71;63.72;100050.00;472809;111;922998;-79
2021/12/02 00:56:01;;;;;;;2.61;2.09;;;;;;;1.71;63.59;100043.81;470945;111;922733;-80
2021/12/02 00:57:07;;;;;;;2.38;2.19;;;;;;;1.71;63.45;100044.63;471718;111;923040;-79
2021/12/02 00:58:17;;;;;;;2.57;2.06;;;;;;;1.71;63.48;100038.44;470515;111;922612;-80
2021/12/02 00:59:19;;;;;;;1.93;1.76;;;;;;;1.71;63.51;100041.13;471552;111;922995;-79
2021/12/02 01:00:22;;;;;;;1.99;1.85;;;;;;;1.72;63.47;100045.46;470719;111;922604;-80
2021/12/02 01:01:27;;;;;;;2.47;2.27;;;;;;;1.71;63.21;100044.63;471720;111;930463;-79
2021/12/02 01:02:34;;;;;;;2.26;2.09;;;;;;;1.70;63.02;100047.50;471564;111;923056;-81
2021/12/02 01:03:38;;;;;;;2.01;1.91;;;;;;;1.67;62.92;100045.98;471676;111;922638;-80
2021/12/02 01:04:42;;;;;;;1.98;1.88;;;;;;;1.64;62.89;100049.02;471137;111;923107;-80
2021/12/02 01:05:45;;;;;;;2.10;1.89;;;;;;;1.59;62.69;100046.85;470049;111;922623;-80
2021/12/02 01:06:49;;;;;;;1.81;1.71;;;;;;;1.57;62.64;100050.70;469771;111;922874;-80
2021/12/02 01:07:53;;;;;;;1.76;1.66;;;;;;;1.52;62.71;100051.22;470372;111;930360;-81
2021/12/02 01:08:57;;;;;;;2.30;2.12;;;;;;;1.48;62.64;100055.26;470046;111;922699;-79
2021/12/02 01:10:00;;;;;;;1.76;1.65;;;;;;;1.45;62.65;100057.42;469594;111;922580;-78
2021/12/02 01:11:05;;;;;;;1.68;1.58;;;;;;;1.43;62.71;100054.94;470778;111;930451;-80
2021/12/02 01:12:09;;;;;;;1.87;1.67;;;;;;;1.42;62.56;100063.99;469611;111;923076;-80
2021/12/02 01:13:12;;;;;;;1.92;1.79;;;;;;;1.39;62.38;100061.63;471284;111;922548;-80
2021/12/02 01:14:16;;;;;;;1.71;1.61;;;;;;;1.36;62.33;100064.66;470734;111;930411;-81
2021/12/02 01:15:19;;;;;;;2.11;1.44;;;;;;;1.35;62.34;100072.88;471771;111;922920;-80
2021/12/02 01:16:24;;;;;;;1.96;1.86;;;;;;;1.33;62.29;100088.31;471385;111;930280;-80
2021/12/02 01:17:28;;;;;;;1.91;1.75;;;;;;;1.30;62.22;100078.76;471606;111;930609;-80
2021/12/02 01:18:31;;;;;;;1.92;1.65;;;;;;;1.28;62.21;100090.66;472302;111;922699;-79
2021/12/02 01:19:34;;;;;;;2.12;1.90;;;;;;;1.25;62.27;100083.80;471780;111;923032;-81
2021/12/02 01:20:39;;;;;;;2.33;1.62;;;;;;;1.22;62.35;100087.64;470026;111;930417;-80
2021/12/02 01:21:44;;;;;;;2.05;1.94;;;;;;;1.22;62.51;100086.80;470111;111;930535;-80
2021/12/02 01:22:48;;;;;;;2.11;2.01;;;;;;;1.22;62.49;100089.48;471128;111;922518;-80
2021/12/02 01:24:00;;;;;;;1.93;1.75;;;;;;;1.23;62.53;100093.86;471933;111;922642;-79
2021/12/02 01:25:06;;;;;;;2.38;1.90;;;;;;;1.23;62.54;100089.33;471412;111;930365;-79
2021/12/02 01:26:10;;;;;;;2.33;2.13;;;;;;;1.23;62.49;100097.38;471038;111;922807;-79
2021/12/02 01:27:13;;;;;;;1.88;1.74;;;;;;;1.23;62.51;100102.75;471705;111;922677;-79
2021/12/02 01:28:17;;;;;;;2.55;2.10;;;;;;;1.22;62.53;100094.85;469725;111;922451;-80
2021/12/02 01:29:23;;;;;;;2.34;2.14;;;;;;;1.21;62.55;100107.44;470657;111;923024;-80
2021/12/02 01:30:29;;;;;;;2.53;2.33;;;;;;;1.20;62.51;100108.47;469832;111;922618;-80
2021/12/02 01:31:35;;;;;;;2.51;2.31;;;;;;;1.20;62.54;100107.63;470131;111;922908;-80
2021/12/02 01:32:40;;;;;;;2.62;2.37;;;;;;;1.22;62.66;100114.49;469869;111;923273;-80
2021/12/02 01:33:46;;;;;;;2.88;2.60;;;;;;;1.24;62.65;100115.17;461779;113;923490;-80
2021/12/02 01:34:50;;;;;;;3.07;2.32;;;;;;;1.27;62.60;100123.92;461498;111;922789;-80
2021/12/02 01:36:02;;;;;;;4.06;2.53;;;;;;;1.28;62.52;100112.98;472637;111;922613;-80
2021/12/02 01:37:09;;;;;;;2.59;2.39;;;;;;;1.29;62.42;100114.67;471092;111;922928;-80
2021/12/02 01:38:12;;;;;;;2.67;2.40;;;;;;;1.27;62.33;100122.05;470729;111;923053;-79
2021/12/02 01:39:17;;;;;;;2.61;2.38;;;;;;;1.25;62.38;100134.81;469856;111;922446;-80
2021/12/02 01:40:23;;;;;;;2.99;2.52;;;;;;;1.24;62.35;100119.70;463170;113;922573;-80
2021/12/02 01:41:26;;;;;;;3.08;2.44;;;;;;;1.22;62.24;100125.23;461730;111;922717;-80
2021/12/02 01:42:32;;;;;;;2.26;2.08;;;;;;;1.20;62.28;100124.58;469682;111;922621;-79
2021/12/02 01:43:53;;;;;;;2.12;1.96;;;;;;;1.17;62.16;100127.58;471525;111;922742;-79
2021/12/02 01:44:58;;;;;;;2.08;1.88;;;;;;;1.14;62.09;100127.92;471397;111;922523;-79
2021/12/02 01:46:03;;;;;;;2.27;1.82;;;;;;;1.10;62.03;100129.23;469547;111;922519;-80
2021/12/02 01:47:12;;;;;;;2.58;2.01;;;;;;;1.08;61.97;100133.11;470700;111;922459;-79
2021/12/02 01:48:28;;;;;;;2.08;1.89;;;;;;;1.02;62.01;100134.61;470523;111;922672;-79
2021/12/02 01:49:36;;;;;;;2.05;1.73;;;;;;;0.99;61.95;100134.95;470218;111;922614;-79
2021/12/02 01:50:39;;;;;;;2.38;2.03;;;;;;;0.95;62.04;100136.26;469152;111;923015;-80
2021/12/02 01:51:49;;;;;;;2.77;2.34;;;;;;;0.92;62.04;100139.28;468993;111;922697;-79
2021/12/02 01:52:58;;;;;;;1.73;1.58;;;;;;;0.92;61.98;100136.60;470929;111;922809;-79
2021/12/02 01:54:08;;;;;;;2.24;1.97;;;;;;;0.90;61.91;100145.80;466268;111;922721;-79
2021/12/02 01:55:14;;;;;;;2.11;1.89;;;;;;;0.87;61.86;100140.78;465592;111;922628;-81
2021/12/02 01:56:20;;;;;;;1.76;1.65;;;;;;;0.84;61.81;100136.56;467417;112;923088;-80
2021/12/02 01:57:32;;;;;;;2.01;1.80;;;;;;;0.81;61.74;100136.91;466791;112;922669;-81
2021/12/02 01:58:46;;;;;;;1.81;1.71;;;;;;;0.79;61.69;100142.42;466280;112;922555;-82
2021/12/02 01:59:53;;;;;;;2.19;1.64;;;;;;;0.77;61.66;100146.30;466915;112;922865;-81
2021/12/02 02:00:58;;;;;;;2.29;1.82;;;;;;;0.74;61.62;100144.76;457026;115;923437;-81
2021/12/02 02:02:04;;;;;;;2.14;1.88;;;;;;;0.72;61.62;100146.75;457212;115;922500;-80
2021/12/02 02:03:09;;;;;;;2.15;1.86;;;;;;;0.71;61.61;100149.63;457967;115;922727;-82
2021/12/02 02:04:15;;;;;;;2.25;1.88;;;;;;;0.69;61.45;100148.93;449325;117;922887;-82
2021/12/02 02:05:18;;;;;;;2.09;1.80;;;;;;;0.66;61.49;100149.27;449600;116;930405;-80
2021/12/02 02:06:29;;;;;;;1.94;1.74;;;;;;;0.63;61.50;100149.58;449226;116;922901;-80
2021/12/02 02:07:33;;;;;;;2.38;1.77;;;;;;;0.62;61.59;100159.46;456254;115;922531;-80
2021/12/02 02:08:40;;;;;;;1.86;1.76;;;;;;;0.62;61.39;100155.94;447583;118;922690;-79
2021/12/02 02:09:44;;;;;;;1.83;1.68;;;;;;;0.61;61.40;100160.45;453409;115;930486;-77
2021/12/02 02:10:49;;;;;;;2.35;1.75;;;;;;;0.58;61.42;100157.27;457582;115;922765;-79
2021/12/02 02:11:53;;;;;;;2.80;1.78;;;;;;;0.57;61.43;100160.95;455919;115;922568;-79
2021/12/02 02:12:59;;;;;;;1.92;1.71;;;;;;;0.56;61.48;100162.78;458376;115;922491;-82
2021/12/02 02:14:05;;;;;;;1.98;1.74;;;;;;;0.53;61.43;100149.71;451102;114;922685;-78
2021/12/02 02:15:08;;;;;;;1.91;1.79;;;;;;;0.52;61.51;100161.44;456853;115;923143;-79
2021/12/02 02:16:12;;;;;;;2.97;2.06;;;;;;;0.51;61.48;100161.58;457515;115;922681;-77
2021/12/02 02:17:23;;;;;;;1.95;1.81;;;;;;;0.51;61.54;100157.06;458772;115;922519;-80
2021/12/02 02:18:22;;;;;;;3.31;1.65;;;;;;;0.51;61.59;100158.91;456158;115;922552;-80
2021/12/02 02:19:30;;;;;;;2.06;1.86;;;;;;;0.51;61.58;100151.70;458266;115;922980;-77
2021/12/02 02:20:48;;;;;;;1.81;1.64;;;;;;;0.50;61.52;100154.56;458290;115;922647;-77
2021/12/02 02:21:48;;;;;;;2.56;1.91;;;;;;;0.49;61.43;100164.45;457649;115;922987;-77
2021/12/02 02:22:52;;;;;;;1.77;1.57;;;;;;;0.47;61.47;100165.59;458270;115;923088;-80
2021/12/02 02:24:00;;;;;;;1.79;1.69;;;;;;;0.45;61.43;100168.43;457737;115;922577;-79
2021/12/02 02:25:10;;;;;;;4.55;1.68;;;;;;;0.44;61.50;100172.14;458322;115;930507;-77
2021/12/02 02:26:09;;;;;;;2.53;2.04;;;;;;;0.42;61.45;100163.41;456878;115;923206;-80
2021/12/02 02:27:13;;;;;;;1.82;1.70;;;;;;;0.40;61.44;100182.33;446386;116;922653;-79
2021/12/02 02:28:16;;;;;;;2.58;2.01;;;;;;;0.39;61.45;100179.80;450196;117;925674;-77
2021/12/02 02:29:20;;;;;;;3.17;2.07;;;;;;;0.39;61.59;100186.00;449800;117;930476;-77
2021/12/02 02:30:23;;;;;;;2.34;2.14;;;;;;;0.38;61.71;100178.98;451453;116;922584;-76
2021/12/02 02:31:28;;;;;;;3.22;2.71;;;;;;;0.40;61.83;100185.01;457520;114;930454;-78
2021/12/02 02:32:33;;;;;;;2.83;2.36;;;;;;;0.42;61.80;100187.54;455723;114;930435;-78
2021/12/02 02:33:37;;;;;;;3.08;2.56;;;;;;;0.45;61.84;100181.00;458003;115;922645;-77
2021/12/02 02:34:41;;;;;;;4.47;2.95;;;;;;;0.46;61.84;100186.20;457121;115;922740;-78
2021/12/02 02:35:45;;;;;;;2.32;1.82;;;;;;;0.50;61.84;100186.75;449915;116;922560;-79
2021/12/02 02:36:52;;;;;;;2.34;2.03;;;;;;;0.53;61.80;100194.47;450230;116;922548;-78
2021/12/02 02:37:54;;;;;;;2.93;2.59;;;;;;;0.54;61.62;100197.00;449118;116;923214;-78
2021/12/02 02:38:58;;;;;;;2.66;2.44;;;;;;;0.55;61.54;100201.34;451599;115;922617;-77
2021/12/02 02:40:06;;;;;;;2.87;2.36;;;;;;;0.58;61.24;100184.09;446874;117;922859;-77
2021/12/02 02:41:10;;;;;;;2.58;2.21;;;;;;;0.58;61.10;100187.62;454616;115;922609;-77
2021/12/02 02:42:14;;;;;;;2.34;2.02;;;;;;;0.59;61.17;100191.14;454752;115;922466;-79
2021/12/02 02:43:23;;;;;;;3.00;2.11;;;;;;;0.57;61.20;100187.77;448958;116;923280;-76
2021/12/02 02:44:27;;;;;;;2.93;2.16;;;;;;;0.57;61.20;100187.77;458456;115;930553;-80
2021/12/02 02:45:30;;;;;;;2.03;1.79;;;;;;;0.57;60.95;100182.41;458017;115;922659;-78
2021/12/02 02:46:37;;;;;;;2.03;1.72;;;;;;;0.54;60.81;100191.62;457849;115;922701;-80
2021/12/02 02:47:40;;;;;;;3.01;2.17;;;;;;;0.51;60.69;100183.05;446899;117;922695;-79
2021/12/02 02:48:44;;;;;;;2.13;1.80;;;;;;;0.49;60.72;100187.75;450175;117;922685;-78
2021/12/02 02:49:49;;;;;;;2.15;1.92;;;;;;;0.47;60.79;100187.05;450934;117;925001;-77
2021/12/02 02:50:52;;;;;;;2.86;1.99;;;;;;;0.46;60.88;100188.89;457251;115;930903;-78
2021/12/02 02:51:56;;;;;;;2.60;1.81;;;;;;;0.45;60.91;100186.36;457119;115;923218;-79
2021/12/02 02:53:06;;;;;;;2.16;1.87;;;;;;;0.45;60.96;100181.00;458772;115;930430;-78
2021/12/02 02:54:11;;;;;;;2.15;1.82;;;;;;;0.44;61.05;100188.23;456760;115;922455;-79
2021/12/02 02:55:22;;;;;;;2.27;1.79;;;;;;;0.43;60.95;100188.38;457082;115;922992;-80
2021/12/02 02:56:23;;;;;;;4.51;2.09;;;;;;;0.41;60.93;100191.22;457265;115;922799;-79
2021/12/02 02:57:29;;;;;;;1.67;1.52;;;;;;;0.40;60.95;100192.20;458663;115;922548;-78
2021/12/02 03:02:41;;;;;;;2.24;1.93;;;;;;;0.45;61.16;100205.98;477735;110;947689;-78
2021/12/02 03:03:53;;;;;;;2.45;1.94;;;;;;;0.32;61.20;100211.80;467019;111;922636;-76
2021/12/02 03:06:43;;;;;;;1.90;1.62;;;;;;;0.31;61.36;100209.27;467414;112;922623;-79
2021/12/02 03:07:19;;;;;;;2.95;2.27;;;;;;;0.31;61.42;100203.90;460067;112;923273;-79
2021/12/02 03:08:19;;;;;;;2.03;1.92;;;;;;;0.31;61.35;100215.47;466301;111;922569;-80
2021/12/02 03:09:38;;;;;;;2.27;2.00;;;;;;;0.31;61.40;100217.30;466221;111;922561;-77
2021/12/02 03:11:50;;;;;;;3.77;3.26;;;;;;;0.29;61.40;100225.50;467218;111;922598;-78
2021/12/02 03:13:56;;;;;;;4.30;3.78;;;;;;;0.28;61.33;100231.85;467029;112;922554;-78
2021/12/02 03:17:31;;;;;;;2.97;2.48;;;;;;;0.26;61.37;100220.47;464522;112;923009;-77
2021/12/02 03:18:35;;;;;;;2.46;2.17;;;;;;;0.24;61.31;100226.97;464700;112;923106;-79
2021/12/02 03:19:43;;;;;;;2.76;2.51;;;;;;;0.22;61.35;100221.75;465410;112;922595;-80
2021/12/02 03:20:46;;;;;;;3.38;1.97;;;;;;;0.21;61.38;100229.98;467726;111;922528;-78
2021/12/02 03:21:50;;;;;;;3.85;3.48;;;;;;;0.19;61.43;100227.44;466070;112;923045;-79
2021/12/02 03:22:53;;;;;;;5.08;4.44;;;;;;;0.17;61.42;100229.43;469497;112;922721;-80
2021/12/02 03:23:59;;;;;;;4.67;3.79;;;;;;;0.17;61.49;100228.58;467456;112;922541;-76
2021/12/02 03:25:05;;;;;;;4.86;4.42;;;;;;;0.15;61.46;100230.60;468833;111;930498;-79
2021/12/02 03:26:08;;;;;;;3.43;3.07;;;;;;;0.13;61.52;100233.43;466902;112;922518;-79
2021/12/02 03:27:12;;;;;;;3.04;2.59;;;;;;;0.11;61.60;100232.73;466089;112;922579;-78
2021/12/02 03:28:15;;;;;;;2.78;2.54;;;;;;;0.11;61.53;100231.92;466175;112;922950;-79
2021/12/02 03:29:19;;;;;;;2.39;2.19;;;;;;;0.11;61.57;100230.05;467514;112;922564;-77
2021/12/02 03:30:24;;;;;;;2.28;2.07;;;;;;;0.10;61.53;100228.39;466140;111;930319;-78
2021/12/02 03:31:27;;;;;;;2.92;2.70;;;;;;;0.08;61.55;100233.06;466546;112;922815;-79
2021/12/02 03:32:30;;;;;;;3.72;3.17;;;;;;;0.08;61.55;100232.22;466690;112;922495;-78
2021/12/02 03:33:34;;;;;;;4.44;4.04;;;;;;;0.07;61.66;100242.09;467641;112;930676;-79
2021/12/02 03:34:39;;;;;;;4.04;3.67;;;;;;;0.07;61.57;100242.09;467659;111;930521;-80
2021/12/02 03:35:42;;;;;;;5.06;4.64;;;;;;;0.09;61.62;100258.88;463653;112;923067;-78
2021/12/02 03:36:47;;;;;;;3.94;3.52;;;;;;;0.10;61.62;100252.52;461209;111;922549;-78
2021/12/02 03:37:51;;;;;;;2.79;2.46;;;;;;;0.12;61.64;100260.38;466865;112;922506;-79
2021/12/02 03:38:54;;;;;;;4.03;2.45;;;;;;;0.10;61.61;100252.52;465794;112;930122;-80
2021/12/02 03:39:58;;;;;;;2.98;2.33;;;;;;;0.09;61.63;100250.83;467125;111;930976;-80
2021/12/02 03:41:01;;;;;;;2.54;2.22;;;;;;;0.08;61.62;100250.98;466845;112;930413;-80
2021/12/02 03:42:06;;;;;;;2.29;1.96;;;;;;;0.08;61.63;100243.78;467317;111;923329;-82
2021/12/02 03:43:09;;;;;;;2.56;2.31;;;;;;;0.08;61.66;100241.10;465610;112;922545;-79
2021/12/02 03:44:14;;;;;;;3.17;2.79;;;;;;;0.10;61.71;100238.27;465643;112;922516;-80
2021/12/02 03:45:18;;;;;;;2.50;2.06;;;;;;;0.09;61.69;100242.79;467042;112;922629;-79
2021/12/02 03:46:24;;;;;;;2.67;2.22;;;;;;;0.08;61.66;100243.78;465486;112;930367;-81
2021/12/02 03:47:28;;;;;;;2.17;1.96;;;;;;;0.08;61.59;100245.62;469080;111;922509;-80
2021/12/02 03:48:31;;;;;;;2.67;2.36;;;;;;;0.09;61.56;100241.95;470347;112;922995;-80
2021/12/02 03:49:35;;;;;;;3.11;2.79;;;;;;;0.09;61.56;100236.58;465999;112;922601;-80
2021/12/02 03:50:39;;;;;;;3.36;2.78;;;;;;;0.09;61.52;100253.52;467114;112;922470;-81
2021/12/02 03:51:42;;;;;;;3.65;3.06;;;;;;;0.10;61.48;100254.36;467077;112;922785;-79
2021/12/02 03:52:45;;;;;;;9.32;8.51;;;;;;;0.09;61.44;100261.55;466711;112;922936;-78
2021/12/02 03:53:49;;;;;;;5.98;5.44;;;;;;;0.08;61.39;100262.55;467034;111;930819;-81
2021/12/02 03:54:53;;;;;;;7.62;7.02;;;;;;;0.08;61.34;100261.70;468697;112;922664;-80
2021/12/02 03:55:56;;;;;;;5.91;5.45;;;;;;;0.08;61.26;100261.70;466881;111;922928;-80
2021/12/02 03:56:59;;;;;;;5.14;4.16;;;;;;;0.07;61.24;100258.17;466362;112;923032;-80
2021/12/02 03:58:03;;;;;;;4.75;4.35;;;;;;;0.06;61.14;100267.20;467225;112;922867;-83
2021/12/02 03:59:06;;;;;;;2.54;2.33;;;;;;;0.05;61.13;100262.87;467243;111;922536;-80
2021/12/02 04:00:10;;;;;;;2.51;1.82;;;;;;;0.04;61.12;100261.18;466647;112;930298;-77
2021/12/02 04:01:18;;;;;;;2.19;1.98;;;;;;;0.03;61.07;100269.37;467458;111;922479;-79
2021/12/02 04:02:21;;;;;;;2.49;2.07;;;;;;;0.02;61.12;100256.95;465067;112;922844;-76
2021/12/02 04:03:25;;;;;;;1.78;1.66;;;;;;;0.01;61.08;100258.80;463858;113;923417;-80
2021/12/02 04:04:29;;;;;;;2.07;1.88;;;;;;;-0.01;61.04;100268.84;462078;113;930247;-79
2021/12/02 04:05:33;;;;;;;1.90;1.73;;;;;;;-0.03;61.08;100266.31;464043;113;922419;-80
2021/12/02 04:06:36;;;;;;;3.49;1.94;;;;;;;-0.04;61.12;100275.34;461402;113;930400;-80
2021/12/02 04:07:39;;;;;;;3.31;2.64;;;;;;;-0.05;61.16;100270.13;463124;113;923105;-79
2021/12/02 04:08:57;;;;;;;2.89;2.69;;;;;;;-0.06;61.21;100271.15;463065;113;922905;-77
2021/12/02 04:09:59;;;;;;;4.86;2.01;;;;;;;-0.08;61.30;100271.30;462844;113;924193;-79
2021/12/02 04:11:16;;;;;;;5.72;2.32;;;;;;;-0.09;61.39;100274.13;462784;113;922762;-79
2021/12/02 04:13:22;;;;;;;2.15;1.93;;;;;;;-0.09;61.45;100283.00;462452;113;922533;-78
2021/12/02 04:14:33;;;;;;;2.26;2.06;;;;;;;-0.08;61.49;100283.84;461855;113;922688;-78
2021/12/02 04:15:39;;;;;;;2.84;2.16;;;;;;;-0.09;61.55;100282.16;462790;113;922790;-79
2021/12/02 04:16:40;;;;;;;2.34;2.03;;;;;;;-0.09;61.61;100282.16;462424;113;923004;-80
2021/12/02 04:17:43;;;;;;;2.06;1.76;;;;;;;-0.08;61.72;100290.05;462158;113;922591;-79
2021/12/02 04:18:47;;;;;;;2.24;2.04;;;;;;;-0.05;61.92;100286.20;461753;113;930353;-79
2021/12/02 04:19:50;;;;;;;2.98;2.69;;;;;;;-0.01;62.01;100290.28;462295;113;922668;-79
2021/12/02 04:20:54;;;;;;;4.00;2.43;;;;;;;0.03;61.95;100290.81;463400;113;922682;-79
2021/12/02 04:21:59;;;;;;;4.49;2.99;;;;;;;0.06;61.90;100287.80;462984;113;922745;-78
2021/12/02 04:23:03;;;;;;;3.27;2.88;;;;;;;0.08;61.85;100286.67;462001;113;922971;-80
2021/12/02 04:24:06;;;;;;;3.09;2.71;;;;;;;0.11;61.80;100288.21;462673;113;922589;-79
2021/12/02 04:25:11;;;;;;;3.68;2.70;;;;;;;0.11;61.81;100286.34;462604;113;923087;-79
2021/12/02 04:26:15;;;;;;;3.53;3.22;;;;;;;0.13;61.86;100288.88;463054;113;922582;-80
2021/12/02 04:27:19;;;;;;;4.03;2.79;;;;;;;0.12;61.76;100274.63;463203;113;922688;-77
2021/12/02 04:28:22;;;;;;;3.07;2.61;;;;;;;0.11;61.62;100272.94;461703;113;930540;-78
2021/12/02 04:29:26;;;;;;;3.69;2.96;;;;;;;0.09;61.59;100264.23;463341;113;923197;-78
2021/12/02 04:30:30;;;;;;;4.97;4.57;;;;;;;0.08;61.62;100273.27;462109;113;930458;-80
2021/12/02 04:31:34;;;;;;;5.14;4.68;;;;;;;0.07;61.59;100279.62;462759;113;923048;-80
2021/12/02 04:32:38;;;;;;;3.72;3.39;;;;;;;0.06;61.53;100285.97;448640;116;930608;-79
2021/12/02 04:33:42;;;;;;;3.67;3.09;;;;;;;0.04;61.50;100296.02;446410;116;930681;-82
2021/12/02 04:34:45;;;;;;;4.46;4.06;;;;;;;0.01;61.51;100301.67;448424;116;930645;-79
2021/12/02 04:35:49;;;;;;;4.25;3.78;;;;;;;-0.01;61.61;100306.36;447993;116;922863;-80
2021/12/02 04:36:52;;;;;;;5.04;4.11;;;;;;;-0.02;61.77;100307.36;447276;116;922563;-80
2021/12/02 04:37:56;;;;;;;5.67;4.30;;;;;;;-0.02;61.99;100310.88;448246;116;922852;-80
2021/12/02 04:38:59;;;;;;;4.37;3.97;;;;;;;-0.01;62.11;100312.57;453266;115;930567;-79
2021/12/02 04:40:03;;;;;;;4.99;3.90;;;;;;;0.01;62.11;100315.08;448846;116;930640;-79
2021/12/02 04:41:06;;;;;;;4.14;3.74;;;;;;;0.03;62.11;100321.14;446196;116;922924;-79
2021/12/02 04:42:10;;;;;;;9.36;4.47;;;;;;;0.06;62.14;100325.33;446747;116;923046;-79
2021/12/02 04:43:13;;;;;;;5.33;4.44;;;;;;;0.07;62.15;100322.50;454153;115;930500;-83
2021/12/02 04:44:18;;;;;;;5.19;4.44;;;;;;;0.10;62.13;100321.38;451514;115;931202;-80
2021/12/02 04:45:22;;;;;;;4.87;4.40;;;;;;;0.10;62.08;100324.89;448491;116;923190;-81
2021/12/02 04:46:26;;;;;;;5.65;5.12;;;;;;;0.09;62.03;100325.04;453083;116;922532;-82
2021/12/02 04:47:29;;;;;;;9.23;5.86;;;;;;;0.07;61.97;100324.34;453608;116;922609;-79
2021/12/02 04:48:32;;;;;;;7.56;5.51;;;;;;;0.06;61.97;100326.17;453335;116;930589;-81
2021/12/02 04:49:36;;;;;;;9.83;5.12;;;;;;;0.03;61.89;100326.49;454373;115;922508;-79
2021/12/02 04:50:40;;;;;;;5.99;5.41;;;;;;;0.00;61.87;100324.14;449379;116;922478;-78
2021/12/02 04:51:44;;;;;;;6.60;6.00;;;;;;;-0.03;61.98;100319.06;446757;118;922469;-76
2021/12/02 04:52:49;;;;;;;6.28;5.67;;;;;;;-0.04;62.00;100328.09;446401;116;923009;-78
2021/12/02 04:53:52;;;;;;;7.18;5.01;;;;;;;-0.08;62.01;100316.85;454160;115;923380;-76
2021/12/02 04:54:56;;;;;;;5.85;4.85;;;;;;;-0.09;62.02;100325.88;444853;118;922635;-81
2021/12/02 04:55:59;;;;;;;6.97;5.40;;;;;;;-0.12;62.02;100328.87;446089;116;922598;-77
2021/12/02 04:57:04;;;;;;;6.34;5.69;;;;;;;-0.14;62.14;100335.37;449408;116;930550;-78
2021/12/02 04:58:07;;;;;;;5.90;5.32;;;;;;;-0.16;62.23;100335.52;446115;116;930560;-84
2021/12/02 04:59:11;;;;;;;6.90;6.24;;;;;;;-0.16;62.34;100342.70;446426;117;922576;-80
2021/12/02 05:00:16;;;;;;;6.28;5.68;;;;;;;-0.14;62.44;100346.94;456548;113;930678;-80
2021/12/02 05:01:19;;;;;;;7.29;5.66;;;;;;;-0.13;62.42;100351.30;464154;113;922591;-81
2021/12/02 05:02:25;;;;;;;6.32;5.68;;;;;;;-0.11;62.40;100351.16;461299;112;930478;-79
2021/12/02 05:03:28;;;;;;;7.09;6.35;;;;;;;-0.11;62.40;100351.97;463582;111;922445;-80
2021/12/02 05:04:32;;;;;;;6.79;6.19;;;;;;;-0.09;62.38;100349.16;463382;112;922808;-82
2021/12/02 05:05:35;;;;;;;7.27;6.61;;;;;;;-0.09;62.41;100341.11;464506;112;923485;-78
2021/12/02 05:06:39;;;;;;;7.04;6.44;;;;;;;-0.11;62.27;100346.62;463411;111;922857;-78
2021/12/02 05:07:44;;;;;;;7.34;6.47;;;;;;;-0.14;62.16;100354.97;463100;111;922562;-83
2021/12/02 05:08:48;;;;;;;7.44;6.46;;;;;;;-0.17;62.21;100357.12;463421;111;930761;-78
2021/12/02 05:09:52;;;;;;;8.62;7.78;;;;;;;-0.20;62.34;100355.58;463517;112;922231;-78
2021/12/02 05:10:55;;;;;;;8.54;7.72;;;;;;;-0.20;62.52;100357.41;464351;112;922484;-79
2021/12/02 05:11:59;;;;;;;9.30;7.37;;;;;;;-0.22;62.58;100360.23;463291;112;922442;-81
2021/12/02 05:13:02;;;;;;;9.73;7.64;;;;;;;-0.23;62.57;100363.09;464395;112;922359;-81
2021/12/02 05:14:08;;;;;;;10.39;8.58;;;;;;;-0.24;62.68;100364.92;463605;111;922376;-80
2021/12/02 05:15:12;;;;;;;10.48;8.84;;;;;;;-0.24;62.76;100372.95;463881;112;922603;-79
2021/12/02 05:16:16;;;;;;;12.10;9.01;;;;;;;-0.23;62.81;100371.12;462907;112;922403;-79
2021/12/02 05:17:19;;;;;;;12.50;9.07;;;;;;;-0.23;62.77;100360.41;464881;112;922260;-81